首页
METAR-TAF:

METAR-TAF

机场 :

佩奇, 匈牙利

纬度: 46-06N, 经度: 018-14E, 海拔: 201米

当前天气观测

该预报发布于32分钟前的12:45 UTC
风速11节,风向
温度 18°C
湿度 16%
气压 1032 hPa
能见度10公里或以上
1500米以下无云,无积雨云

METAR: LHPP 071245Z 10011KT CAVOK 18/M08 Q1032

时间: 15:17 (13:17 UTC)

预报

该预报发布于2小时和2分钟前的11:15 UTC
预报有效从07日的 12点(UTC)到 07日的 21点(UTC)
风速15节,风向东南
能见度10公里或以上
1500米以下无云,无积雨云
成为
从 07日的 15点(UTC)到 07日的 18点(UTC)
风速5节,风向东转东南

TAF: LHPP 071115Z 0712/0721 14015KT CAVOK BECMG 0715/0718 12005KT

超过4000个机场的气象观测和天气预报(METAR&TAF报告)。

可查询的气象台以黄色和红色小点在地图上表示。

将鼠标移到小点上方,可查看气象台名称。

然后点击查看天气观测和预报。

如需切换地图:点击带黑十字的绿色按钮放大地图;点击带横线的绿色按钮缩小地图;或者点击绿色箭头查看邻近地区的地图。


METAR-TAF: